Time;durP1;ratioP1;P1;durP2;ratioP2;P2;SDS_P1;SDS_P2;PMS_P1;PMS_P2;Temp;Humidity;BMP_temperature;BMP_pressure;BME280_temperature;BME280_humidity;BME280_pressure;Samples;Min_cycle;Max_cycle;Signal;HPM_P1;HPM_P2
2023/05/02 00:01:45;;;;;;;11.45;7.50;;;13.00;99.90;;;;;;4993353;28;93060;-75
2023/05/02 00:04:12;;;;;;;14.13;9.20;;;13.00;99.90;;;;;;4992320;28;94777;-75
2023/05/02 00:06:41;;;;;;;14.73;9.93;;;12.90;99.90;;;;;;4977034;28;102616;-75
2023/05/02 00:09:08;;;;;;;11.63;8.07;;;12.90;99.90;;;;;;4994781;28;93205;-75
2023/05/02 00:11:35;;;;;;;20.60;10.15;;;12.70;99.90;;;;;;4993315;28;95693;-75
2023/05/02 00:14:02;;;;;;;16.85;8.85;;;12.70;99.90;;;;;;5026623;28;92412;-74
2023/05/02 00:16:29;;;;;;;17.13;10.15;;;12.50;99.90;;;;;;4995365;28;93021;-75
2023/05/02 00:18:56;;;;;;;22.27;9.57;;;12.40;99.90;;;;;;4976604;28;95804;-75
2023/05/02 00:21:23;;;;;;;16.38;7.32;;;12.40;99.90;;;;;;4993700;28;95600;-75
2023/05/02 00:23:53;;;;;;;15.80;9.15;;;12.30;99.90;;;;;;4993733;28;92395;-75
2023/05/02 00:26:20;;;;;;;10.32;6.55;;;12.30;99.90;;;;;;4993557;28;92483;-75
2023/05/02 00:28:47;;;;;;;9.98;5.50;;;12.20;99.90;;;;;;4959479;28;96674;-75
2023/05/02 00:31:14;;;;;;;10.48;6.55;;;12.10;99.90;;;;;;4993386;28;96267;-75
2023/05/02 00:33:41;;;;;;;9.77;5.80;;;12.10;99.90;;;;;;4995040;28;92403;-75
2023/05/02 00:36:15;;;;;;;8.15;4.70;;;12.00;99.90;;;;;;4994988;28;92489;-75
2023/05/02 00:38:43;;;;;;;7.68;5.22;;;11.90;99.90;;;;;;4995659;28;92484;-75
2023/05/02 00:41:11;;;;;;;9.20;6.03;;;11.80;99.90;;;;;;5013741;28;92857;-75
2023/05/02 00:43:40;;;;;;;9.38;5.25;;;11.60;99.90;;;;;;5013638;28;92445;-74
2023/05/02 00:46:11;;;;;;;7.55;5.30;;;11.50;99.90;;;;;;4997074;28;92407;-75
2023/05/02 00:48:38;;;;;;;5.60;4.28;;;11.50;99.90;;;;;;4996008;28;95718;-75
2023/05/02 00:51:07;;;;;;;8.32;4.82;;;11.30;99.90;;;;;;4980016;28;95634;-75
2023/05/02 00:53:35;;;;;;;7.47;5.15;;;11.20;99.90;;;;;;4979112;28;95007;-75
2023/05/02 00:56:02;;;;;;;7.22;5.25;;;11.20;99.90;;;;;;4996699;28;92519;-75
2023/05/02 00:58:29;;;;;;;9.05;4.75;;;11.10;99.90;;;;;;4996204;28;95849;-75
2023/05/02 01:01:15;;;;;;;11.82;4.70;;;11.10;99.90;;;;;;4996400;28;95643;-75
2023/05/02 01:04:15;;;;;;;6.90;4.50;;;11.10;99.90;;;;;;4998204;28;92308;-75
2023/05/02 01:07:03;;;;;;;6.32;4.15;;;11.10;99.90;;;;;;4996638;28;92492;-75
2023/05/02 01:10:08;;;;;;;7.15;4.50;;;11.10;99.90;;;;;;4996019;28;95724;-75
2023/05/02 01:12:44;;;;;;;7.07;4.87;;;11.00;99.90;;;;;;4996238;28;95513;-75
2023/05/02 01:15:16;;;;;;;6.78;4.22;;;11.00;99.90;;;;;;4996265;28;92410;-75
2023/05/02 01:17:46;;;;;;;8.98;5.22;;;11.00;99.90;;;;;;4997690;28;92337;-75
2023/05/02 01:20:16;;;;;;;7.50;5.20;;;11.00;99.90;;;;;;4994856;28;98140;-75
2023/05/02 01:22:43;;;;;;;8.27;5.70;;;11.00;99.90;;;;;;4996127;28;94258;-75
2023/05/02 01:25:22;;;;;;;10.98;5.90;;;11.00;99.90;;;;;;4997857;28;92349;-75
2023/05/02 01:28:30;;;;;;;8.73;5.57;;;11.10;99.90;;;;;;4996075;28;92492;-74
2023/05/02 01:30:58;;;;;;;13.75;6.13;;;11.10;99.90;;;;;;4996234;28;95743;-75
2023/05/02 01:33:29;;;;;;;8.05;4.95;;;11.00;99.90;;;;;;4979439;28;92386;-75
2023/05/02 01:35:57;;;;;;;8.48;6.10;;;11.00;99.90;;;;;;4997733;28;92425;-75
2023/05/02 01:38:26;;;;;;;8.23;5.55;;;11.10;99.90;;;;;;4996086;28;92000;-75
2023/05/02 01:40:54;;;;;;;9.93;5.70;;;11.10;99.90;;;;;;4996978;28;93490;-75
2023/05/02 01:43:22;;;;;;;12.52;5.50;;;11.10;99.90;;;;;;4979144;28;92986;-75
2023/05/02 01:45:50;;;;;;;8.30;5.25;;;11.20;99.90;;;;;;5011679;28;94778;-75
2023/05/02 01:48:19;;;;;;;10.07;6.57;;;11.20;99.90;;;;;;4995848;28;92426;-75
2023/05/02 01:50:47;;;;;;;11.23;6.35;;;11.20;99.90;;;;;;4978137;28;95727;-75
2023/05/02 01:53:15;;;;;;;10.45;6.05;;;11.30;99.90;;;;;;4995673;28;95768;-75
2023/05/02 01:55:44;;;;;;;13.18;5.97;;;11.30;99.90;;;;;;4978969;28;92403;-74
2023/05/02 01:58:13;;;;;;;9.00;5.10;;;11.20;99.90;;;;;;4995744;28;92504;-75
2023/05/02 02:00:44;;;;;;;9.75;5.90;;;11.30;99.90;;;;;;4996869;28;93208;-75
2023/05/02 02:03:12;;;;;;;11.63;6.05;;;11.30;99.90;;;;;;4995839;28;95475;-75
2023/05/02 02:05:41;;;;;;;11.57;6.40;;;11.20;99.90;;;;;;4978808;28;92464;-75
2023/05/02 02:08:08;;;;;;;10.05;6.10;;;11.30;99.90;;;;;;4997112;28;93061;-75
2023/05/02 02:10:39;;;;;;;9.23;5.35;;;11.30;99.90;;;;;;4993307;28;97872;-75
2023/05/02 02:13:18;;;;;;;9.95;5.50;;;11.30;99.90;;;;;;4995259;28;98229;-75
2023/05/02 02:15:49;;;;;;;11.18;5.47;;;11.40;99.90;;;;;;4978712;28;92451;-75
2023/05/02 02:18:25;;;;;;;10.77;5.72;;;11.40;99.90;;;;;;4996508;28;92437;-75
2023/05/02 02:20:52;;;;;;;21.98;7.15;;;11.40;99.90;;;;;;4995211;28;94155;-75
2023/05/02 02:23:24;;;;;;;11.98;4.85;;;11.30;99.90;;;;;;4995152;28;95368;-75
2023/05/02 02:25:53;;;;;;;14.20;4.70;;;11.10;99.90;;;;;;4995110;28;92546;-75
2023/05/02 02:28:20;;;;;;;11.52;3.53;;;10.80;99.90;;;;;;4979119;28;92120;-75
2023/05/02 02:30:47;;;;;;;10.95;4.00;;;10.60;99.90;;;;;;4994638;28;95696;-75
2023/05/02 02:33:14;;;;;;;14.55;3.72;;;10.40;99.90;;;;;;4995108;28;93159;-75
2023/05/02 02:35:48;;;;;;;9.93;3.60;;;10.20;99.90;;;;;;4994125;28;94786;-75
2023/05/02 02:38:43;;;;;;;10.90;4.30;;;10.10;99.90;;;;;;4996872;28;92341;-75
2023/05/02 02:41:30;;;;;;;6.75;3.20;;;9.90;99.90;;;;;;4978516;28;95863;-75
2023/05/02 02:44:06;;;;;;;7.50;2.47;;;9.70;99.90;;;;;;4995162;28;95685;-74
2023/05/02 02:46:55;;;;;;;7.85;3.33;;;9.60;99.90;;;;;;4995281;28;92494;-75
2023/05/02 02:49:47;;;;;;;16.10;4.15;;;9.60;99.90;;;;;;5011782;28;92536;-75
2023/05/02 02:52:45;;;;;;;19.13;4.15;;;9.50;99.90;;;;;;4996057;28;92642;-75
2023/05/02 02:55:28;;;;;;;12.23;4.28;;;9.40;99.90;;;;;;4995024;28;95886;-75
2023/05/02 02:58:05;;;;;;;19.02;4.85;;;9.40;99.90;;;;;;4994516;28;92452;-75
2023/05/02 03:00:33;;;;;;;18.23;5.40;;;9.40;99.90;;;;;;4978391;28;92433;-75
2023/05/02 03:03:00;;;;;;;13.13;4.28;;;9.40;99.90;;;;;;4975713;28;98376;-75
2023/05/02 03:05:28;;;;;;;10.65;3.15;;;9.40;99.90;;;;;;4995788;28;95387;-75
2023/05/02 03:07:59;;;;;;;15.35;4.75;;;9.50;99.90;;;;;;4994537;28;92551;-75
2023/05/02 03:10:26;;;;;;;14.43;4.50;;;9.50;99.90;;;;;;4993930;28;92472;-75
2023/05/02 03:12:54;;;;;;;16.70;4.53;;;9.50;99.90;;;;;;4994110;28;95769;-75
2023/05/02 03:15:52;;;;;;;19.98;5.38;;;9.50;99.90;;;;;;4994345;28;95628;-75
2023/05/02 03:18:25;;;;;;;19.98;4.28;;;9.50;99.90;;;;;;5012323;28;92523;-75
2023/05/02 03:20:53;;;;;;;14.25;3.70;;;9.50;99.90;;;;;;5027807;28;91718;-75
2023/05/02 03:23:20;;;;;;;13.88;3.90;;;9.50;99.90;;;;;;4994102;28;96134;-75
2023/05/02 03:25:48;;;;;;;7.10;2.78;;;9.50;99.90;;;;;;4977947;28;95357;-75
2023/05/02 03:28:20;;;;;;;15.82;3.97;;;9.40;99.90;;;;;;4993227;28;94784;-74
2023/05/02 03:30:48;;;;;;;10.25;3.83;;;9.40;99.90;;;;;;4994213;28;92628;-75
2023/05/02 03:33:15;;;;;;;12.18;4.03;;;9.40;99.90;;;;;;4977382;28;95905;-75
2023/05/02 03:35:44;;;;;;;10.93;3.75;;;9.40;99.90;;;;;;4977614;28;96052;-75
2023/05/02 03:38:12;;;;;;;12.60;3.60;;;9.40;99.90;;;;;;4994114;28;92406;-75
2023/05/02 03:40:39;;;;;;;13.65;3.42;;;9.50;99.90;;;;;;4994181;28;92482;-75
2023/05/02 03:43:10;;;;;;;9.48;3.30;;;9.50;99.90;;;;;;4994015;28;95911;-75
2023/05/02 03:45:38;;;;;;;11.77;3.83;;;9.50;99.90;;;;;;4995742;28;92782;-74
2023/05/02 03:48:05;;;;;;;16.85;4.50;;;9.50;99.90;;;;;;5010622;28;92532;-75
2023/05/02 03:50:32;;;;;;;9.68;3.22;;;9.60;99.90;;;;;;5010910;28;92506;-75
2023/05/02 03:52:59;;;;;;;12.40;3.33;;;9.60;99.90;;;;;;4992159;28;98230;-75
2023/05/02 03:55:39;;;;;;;9.55;3.33;;;9.60;99.90;;;;;;4993890;28;97407;-78
2023/05/02 03:58:10;;;;;;;12.93;3.60;;;9.60;99.90;;;;;;4994028;28;92445;-77
2023/05/02 04:00:37;;;;;;;10.85;3.25;;;9.50;99.90;;;;;;4977624;28;92455;-77
2023/05/02 04:03:06;;;;;;;9.80;4.03;;;9.50;99.90;;;;;;4993707;28;93387;-77
2023/05/02 04:05:37;;;;;;;12.93;3.20;;;9.40;99.90;;;;;;5011187;28;94009;-77
2023/05/02 04:08:05;;;;;;;12.50;3.38;;;9.30;99.90;;;;;;4993730;28;93015;-77
2023/05/02 04:10:32;;;;;;;12.90;3.95;;;9.30;99.90;;;;;;4993994;28;91771;-77
2023/05/02 04:13:02;;;;;;;9.70;2.90;;;9.20;99.90;;;;;;5010694;28;95493;-77
2023/05/02 04:15:31;;;;;;;12.35;3.45;;;9.20;99.90;;;;;;5013941;28;94022;-77
2023/05/02 04:17:58;;;;;;;10.05;3.50;;;9.20;99.90;;;;;;4996138;28;95434;-77
2023/05/02 04:20:25;;;;;;;6.80;3.08;;;9.10;99.90;;;;;;4997269;28;92435;-77
2023/05/02 04:22:54;;;;;;;9.98;2.50;;;9.10;99.90;;;;;;4996809;28;95645;-77
2023/05/02 04:25:21;;;;;;;9.27;3.30;;;9.10;99.90;;;;;;4996782;28;95407;-77
2023/05/02 04:27:50;;;;;;;10.95;3.20;;;9.10;99.90;;;;;;4997173;28;92396;-77
2023/05/02 04:30:20;;;;;;;7.57;2.15;;;9.10;99.90;;;;;;4997028;28;92552;-77
2023/05/02 04:32:56;;;;;;;5.13;1.67;;;9.00;99.90;;;;;;4981241;28;96207;-77
2023/05/02 04:35:25;;;;;;;7.60;2.65;;;9.00;99.90;;;;;;4997250;28;94842;-77
2023/05/02 04:37:52;;;;;;;7.78;2.30;;;9.00;99.90;;;;;;4980461;28;92446;-77
2023/05/02 04:40:20;;;;;;;8.48;2.65;;;9.00;99.90;;;;;;4997138;28;93022;-77
2023/05/02 04:42:51;;;;;;;6.93;2.40;;;9.10;99.90;;;;;;4995368;28;97959;-77
2023/05/02 04:45:21;;;;;;;12.05;2.80;;;9.10;99.90;;;;;;4996780;28;97699;-77
2023/05/02 04:47:49;;;;;;;5.88;2.30;;;9.10;99.90;;;;;;4996943;28;92525;-77
2023/05/02 04:50:16;;;;;;;9.68;2.78;;;9.10;99.90;;;;;;4996900;28;92497;-77
2023/05/02 04:52:43;;;;;;;6.90;2.10;;;9.20;99.90;;;;;;4980297;28;95974;-77
2023/05/02 04:55:10;;;;;;;7.45;2.08;;;9.20;99.90;;;;;;4996460;28;95415;-77
2023/05/02 04:57:38;;;;;;;6.57;1.65;;;9.30;99.90;;;;;;5013816;28;92504;-77
2023/05/02 05:00:08;;;;;;;5.75;1.73;;;9.30;99.90;;;;;;4980959;28;91717;-77
2023/05/02 05:02:36;;;;;;;8.40;1.98;;;9.20;99.90;;;;;;4979990;28;95669;-78
2023/05/02 05:05:03;;;;;;;10.57;2.30;;;9.20;99.90;;;;;;4979843;28;94870;-77
2023/05/02 05:07:30;;;;;;;5.88;1.85;;;9.20;99.90;;;;;;4995809;28;94929;-77
2023/05/02 05:09:58;;;;;;;6.88;2.08;;;9.20;99.90;;;;;;4996303;28;92450;-78
2023/05/02 05:12:28;;;;;;;4.35;1.73;;;9.30;99.90;;;;;;4995781;28;95183;-77
2023/05/02 05:14:56;;;;;;;2.95;2.65;;;9.30;99.90;;;;;;4996112;28;95620;-77
2023/05/02 05:17:25;;;;;;;2.97;1.48;;;9.30;99.90;;;;;;4980087;28;92847;-77
2023/05/02 05:19:52;;;;;;;5.43;1.88;;;9.30;99.90;;;;;;4979939;28;92967;-77
2023/05/02 05:22:20;;;;;;;4.03;1.75;;;9.30;99.90;;;;;;4996151;28;95750;-77
2023/05/02 05:24:54;;;;;;;4.13;1.50;;;9.30;99.90;;;;;;5013038;28;95450;-77
2023/05/02 05:27:26;;;;;;;11.98;2.70;;;9.30;99.90;;;;;;4995854;28;92549;-77
2023/05/02 05:29:53;;;;;;;7.38;1.70;;;9.30;99.90;;;;;;4963111;28;92536;-77
2023/05/02 05:32:20;;;;;;;4.50;1.60;;;9.30;99.90;;;;;;4994302;28;102147;-77
2023/05/02 05:34:52;;;;;;;5.75;1.90;;;9.30;99.90;;;;;;4979639;28;97627;-77
2023/05/02 05:37:21;;;;;;;5.72;1.52;;;9.40;99.90;;;;;;4996067;28;92500;-77
2023/05/02 05:39:48;;;;;;;6.70;1.63;;;9.40;99.90;;;;;;4996059;28;93293;-77
2023/05/02 05:42:16;;;;;;;5.05;1.70;;;9.50;99.90;;;;;;4995608;28;95385;-77
2023/05/02 05:44:45;;;;;;;5.25;1.67;;;9.50;99.90;;;;;;5012976;28;95255;-78
2023/05/02 05:47:21;;;;;;;5.93;2.17;;;9.50;99.90;;;;;;4995636;28;92426;-77
2023/05/02 05:49:53;;;;;;;6.38;2.08;;;9.60;99.90;;;;;;4996176;28;91839;-77
2023/05/02 05:52:22;;;;;;;7.07;2.42;;;9.60;99.90;;;;;;4995754;28;95842;-77
2023/05/02 05:54:56;;;;;;;8.23;2.85;;;9.50;99.90;;;;;;4995263;28;93997;-77
2023/05/02 05:57:25;;;;;;;6.00;2.63;;;9.60;99.90;;;;;;4978815;28;94896;-77
2023/05/02 05:59:53;;;;;;;5.18;2.42;;;9.60;99.90;;;;;;4979562;28;92504;-77
2023/05/02 06:02:21;;;;;;;8.45;2.67;;;9.50;99.90;;;;;;4995309;28;95483;-74
2023/05/02 06:04:48;;;;;;;13.00;3.08;;;9.50;99.90;;;;;;4995509;28;95375;-75
2023/05/02 06:07:19;;;;;;;5.75;2.55;;;9.40;99.90;;;;;;4995119;28;92460;-75
2023/05/02 06:09:46;;;;;;;10.32;2.40;;;9.50;99.90;;;;;;4995414;28;92504;-75
2023/05/02 06:12:15;;;;;;;9.18;2.75;;;9.50;99.90;;;;;;4994726;28;95765;-75
2023/05/02 06:14:42;;;;;;;7.40;2.33;;;9.50;99.90;;;;;;4995890;28;95330;-75
2023/05/02 06:17:10;;;;;;;10.05;2.78;;;9.50;99.90;;;;;;4995751;28;93030;-75
2023/05/02 06:19:37;;;;;;;7.43;2.40;;;9.50;99.90;;;;;;4995231;28;92623;-75
2023/05/02 06:22:05;;;;;;;8.98;2.15;;;9.60;99.90;;;;;;4993571;28;97863;-75
2023/05/02 06:24:32;;;;;;;9.00;2.75;;;9.60;99.90;;;;;;4995422;28;95404;-75
2023/05/02 06:26:59;;;;;;;5.85;2.40;;;9.60;99.20;;;;;;4995457;28;92439;-75
2023/05/02 06:29:26;;;;;;;7.00;2.22;;;9.70;99.40;;;;;;4978570;28;92586;-75
2023/05/02 06:31:56;;;;;;;11.05;2.47;;;9.80;99.20;;;;;;4978197;28;104019;-75
2023/05/02 06:34:23;;;;;;;8.55;2.47;;;9.80;98.80;;;;;;5011447;28;93237;-75
2023/05/02 06:36:56;;;;;;;7.57;2.50;;;9.90;98.80;;;;;;4994798;28;92976;-75
2023/05/02 06:39:24;;;;;;;10.57;2.60;;;10.00;98.20;;;;;;4996567;28;91761;-75
2023/05/02 06:41:55;;;;;;;7.13;2.35;;;10.10;98.40;;;;;;4996356;28;93340;-75
2023/05/02 06:44:22;;;;;;;7.63;2.63;;;10.20;97.90;;;;;;4996146;28;92920;-75
2023/05/02 06:46:49;;;;;;;8.38;2.42;;;10.30;97.60;;;;;;4993625;28;95385;-75
2023/05/02 06:49:16;;;;;;;3.78;2.25;;;10.30;97.70;;;;;;4996030;28;92457;-75
2023/05/02 06:51:43;;;;;;;6.30;2.47;;;10.40;97.50;;;;;;4994942;28;94620;-75
2023/05/02 06:54:10;;;;;;;7.38;2.38;;;10.50;97.60;;;;;;4993937;28;110387;-77
2023/05/02 06:56:37;;;;;;;7.38;2.47;;;10.60;96.80;;;;;;4978491;28;93162;-77
2023/05/02 06:59:04;;;;;;;10.85;2.50;;;10.60;96.70;;;;;;4996211;28;92357;-77
2023/05/02 07:01:31;;;;;;;10.30;2.80;;;10.60;96.80;;;;;;4994695;28;93392;-77
2023/05/02 07:03:58;;;;;;;7.38;2.53;;;10.80;97.20;;;;;;4994863;28;95631;-78
2023/05/02 07:06:25;;;;;;;9.57;2.53;;;10.90;96.90;;;;;;4995961;28;93445;-78
2023/05/02 07:08:52;;;;;;;5.53;2.25;;;11.00;96.10;;;;;;4994773;28;92479;-78
2023/05/02 07:11:20;;;;;;;4.45;2.30;;;11.10;95.50;;;;;;4992357;28;98114;-77
2023/05/02 07:13:47;;;;;;;4.85;2.17;;;11.10;95.20;;;;;;4995800;28;95491;-78
2023/05/02 07:16:14;;;;;;;5.93;2.42;;;11.10;95.30;;;;;;4995705;28;92442;-78
2023/05/02 07:18:42;;;;;;;7.25;2.60;;;11.20;95.00;;;;;;4995885;28;92459;-78
2023/05/02 07:21:08;;;;;;;13.82;2.78;;;11.20;95.60;;;;;;4995670;28;93270;-78
2023/05/02 07:23:35;;;;;;;5.20;2.30;;;11.30;96.00;;;;;;4994320;28;93183;-77
2023/05/02 07:26:04;;;;;;;3.75;1.83;;;11.30;94.50;;;;;;4996021;28;92643;-78
2023/05/02 07:28:32;;;;;;;5.97;2.03;;;11.30;94.00;;;;;;4978182;28;92273;-75
2023/05/02 07:30:59;;;;;;;7.43;2.30;;;11.20;93.60;;;;;;4994197;28;95786;-75
2023/05/02 07:33:26;;;;;;;8.70;3.40;;;11.10;93.30;;;;;;4994970;28;93981;-75
2023/05/02 07:35:55;;;;;;;6.18;2.10;;;11.40;94.30;;;;;;4976690;28;94875;-75
2023/05/02 07:38:22;;;;;;;4.57;2.45;;;11.70;93.60;;;;;;4994918;28;99382;-75
2023/05/02 07:40:49;;;;;;;6.20;2.30;;;11.80;92.60;;;;;;4994106;28;95669;-75
2023/05/02 07:43:16;;;;;;;9.25;2.25;;;12.00;92.50;;;;;;4994948;28;93134;-75
2023/05/02 07:45:43;;;;;;;7.00;2.88;;;12.10;92.10;;;;;;4994231;28;92423;-75
2023/05/02 07:48:10;;;;;;;4.18;2.35;;;12.30;92.60;;;;;;4995698;28;92417;-75
2023/05/02 07:50:37;;;;;;;6.60;2.35;;;12.40;91.90;;;;;;4997064;28;95800;-75
2023/05/02 07:53:04;;;;;;;8.63;2.30;;;12.60;91.30;;;;;;5014882;28;95917;-74
2023/05/02 07:55:32;;;;;;;7.70;2.60;;;12.80;91.20;;;;;;4997593;28;92336;-75
2023/05/02 07:57:59;;;;;;;8.02;2.90;;;13.00;91.70;;;;;;4997378;28;101319;-75
2023/05/02 08:00:26;;;;;;;5.13;2.15;;;13.00;91.00;;;;;;4995878;28;100576;-75
2023/05/02 08:02:53;;;;;;;3.25;2.28;;;13.00;90.40;;;;;;4997450;28;98300;-75
2023/05/02 08:05:20;;;;;;;10.32;2.78;;;13.00;90.40;;;;;;4998639;28;92366;-74
2023/05/02 08:07:47;;;;;;;6.35;2.60;;;13.10;90.60;;;;;;4997415;28;92533;-75
2023/05/02 08:10:14;;;;;;;8.73;2.60;;;13.20;90.90;;;;;;4997547;28;92518;-75
2023/05/02 08:12:41;;;;;;;6.35;2.70;;;13.40;90.30;;;;;;4995654;28;95756;-75
2023/05/02 08:15:11;;;;;;;9.57;3.65;;;13.50;90.00;;;;;;4998665;28;92466;-75
2023/05/02 08:17:38;;;;;;;8.85;3.17;;;13.50;90.50;;;;;;4997446;28;91716;-75
2023/05/02 08:20:06;;;;;;;4.90;2.50;;;13.40;90.80;;;;;;4996708;28;105317;-75
2023/05/02 08:22:33;;;;;;;8.07;2.50;;;13.20;90.20;;;;;;5013753;28;93190;-75
2023/05/02 08:25:00;;;;;;;9.85;3.40;;;12.90;90.20;;;;;;5012863;28;94843;-75
2023/05/02 08:27:27;;;;;;;7.90;3.22;;;12.80;90.80;;;;;;4998397;28;92477;-75
2023/05/02 08:29:54;;;;;;;9.15;2.40;;;12.70;91.50;;;;;;4996779;28;94955;-75
2023/05/02 08:32:24;;;;;;;10.02;3.28;;;12.50;91.00;;;;;;4998201;28;92448;-75
2023/05/02 08:34:55;;;;;;;5.47;2.15;;;12.50;92.20;;;;;;4996867;28;92454;-75
2023/05/02 08:37:22;;;;;;;7.80;2.90;;;12.50;92.30;;;;;;4998527;28;92747;-75
2023/05/02 08:39:49;;;;;;;8.10;2.85;;;12.50;92.10;;;;;;5013846;28;93253;-75
2023/05/02 08:42:16;;;;;;;6.03;2.65;;;12.60;92.50;;;;;;4997153;28;100968;-75
2023/05/02 08:44:43;;;;;;;6.07;2.75;;;12.50;92.90;;;;;;4998154;28;92565;-75
2023/05/02 08:47:13;;;;;;;7.15;2.38;;;12.50;93.50;;;;;;4998455;28;92875;-75
2023/05/02 08:49:42;;;;;;;4.35;2.72;;;12.40;93.30;;;;;;4995275;28;95795;-74
2023/05/02 08:52:11;;;;;;;6.50;2.70;;;12.40;93.60;;;;;;4980168;28;95557;-75
2023/05/02 08:54:38;;;;;;;5.18;2.22;;;12.60;93.70;;;;;;4996584;28;92754;-75
2023/05/02 08:57:05;;;;;;;4.38;2.20;;;12.90;93.10;;;;;;4998033;28;92433;-75
2023/05/02 08:59:32;;;;;;;7.03;2.08;;;13.00;93.30;;;;;;4995755;28;107283;-75
2023/05/02 09:02:18;;;;;;;6.35;2.28;;;13.10;93.20;;;;;;4996573;28;93022;-75
2023/05/02 09:04:51;;;;;;;6.00;2.42;;;13.40;92.90;;;;;;4979853;28;92549;-75
2023/05/02 09:07:18;;;;;;;4.77;2.20;;;13.60;93.10;;;;;;4997169;28;91715;-75
2023/05/02 09:09:45;;;;;;;6.70;2.08;;;13.80;92.70;;;;;;4996291;28;93402;-75
2023/05/02 09:12:13;;;;;;;4.50;2.05;;;14.10;92.50;;;;;;4997457;28;93356;-75
2023/05/02 09:14:43;;;;;;;3.53;1.92;;;14.30;92.00;;;;;;4994749;28;94841;-75
2023/05/02 09:17:10;;;;;;;4.00;1.90;;;14.40;91.80;;;;;;5013117;28;93049;-75
2023/05/02 09:19:37;;;;;;;7.05;2.55;;;14.40;91.30;;;;;;4995791;28;103268;-75
2023/05/02 09:22:04;;;;;;;5.88;2.20;;;14.40;91.10;;;;;;4996220;28;95499;-75
2023/05/02 09:24:31;;;;;;;5.55;1.90;;;14.10;91.00;;;;;;4996153;28;92411;-75
2023/05/02 09:27:03;;;;;;;3.90;1.73;;;13.80;90.90;;;;;;4997645;28;92884;-75
2023/05/02 09:29:36;;;;;;;5.63;1.83;;;13.50;91.00;;;;;;4995686;28;95667;-75
2023/05/02 09:32:05;;;;;;;6.68;1.60;;;13.20;91.60;;;;;;4997949;28;92996;-75
2023/05/02 09:34:33;;;;;;;4.38;1.52;;;13.00;91.50;;;;;;4996049;28;92403;-75
2023/05/02 09:37:02;;;;;;;4.43;1.63;;;12.90;91.40;;;;;;4995880;28;94192;-75
2023/05/02 09:39:30;;;;;;;4.13;1.70;;;13.00;91.30;;;;;;4994455;28;98544;-75
2023/05/02 09:41:57;;;;;;;4.43;1.77;;;13.20;91.50;;;;;;4995602;28;96328;-77
2023/05/02 09:44:26;;;;;;;3.65;1.75;;;13.20;90.60;;;;;;4997388;28;92507;-77
2023/05/02 09:46:56;;;;;;;5.65;1.83;;;13.20;90.40;;;;;;4997142;28;92825;-78
2023/05/02 09:49:46;;;;;;;3.97;1.50;;;13.30;90.20;;;;;;4997087;28;93211;-78
2023/05/02 09:52:14;;;;;;;5.20;1.40;;;13.30;88.70;;;;;;4997145;28;92944;-75
2023/05/02 09:54:41;;;;;;;3.70;1.58;;;13.20;90.00;;;;;;4995307;28;100882;-75
2023/05/02 09:57:09;;;;;;;4.40;1.52;;;13.30;90.10;;;;;;4996326;28;91643;-75
2023/05/02 09:59:38;;;;;;;1.83;1.65;;;13.40;90.30;;;;;;4978792;28;94386;-75
2023/05/02 10:02:06;;;;;;;3.40;1.30;;;13.60;88.90;;;;;;4995749;28;92988;-75
2023/05/02 10:04:33;;;;;;;3.80;1.80;;;13.70;88.60;;;;;;4995832;28;94826;-75
2023/05/02 10:07:02;;;;;;;2.65;1.30;;;13.90;88.60;;;;;;4978838;28;93154;-75
2023/05/02 10:09:33;;;;;;;3.60;1.40;;;14.00;87.10;;;;;;4995371;28;93130;-78
2023/05/02 10:12:03;;;;;;;2.92;1.50;;;14.20;87.00;;;;;;4995600;28;93019;-78
2023/05/02 10:14:34;;;;;;;2.47;1.38;;;14.40;86.10;;;;;;4995350;28;92458;-78
2023/05/02 10:17:11;;;;;;;3.95;1.40;;;14.60;85.60;;;;;;4978524;28;92487;-77
2023/05/02 10:19:59;;;;;;;4.35;1.70;;;14.80;83.90;;;;;;4996839;28;93096;-78
2023/05/02 10:22:26;;;;;;;3.67;1.60;;;14.80;83.70;;;;;;4996034;28;93056;-78
2023/05/02 10:24:53;;;;;;;1.85;1.38;;;14.60;83.00;;;;;;4994942;28;98370;-78
2023/05/02 10:27:21;;;;;;;1.92;1.40;;;14.60;83.50;;;;;;4995711;28;92557;-75
2023/05/02 10:29:50;;;;;;;4.03;1.30;;;14.60;84.50;;;;;;4993392;28;98396;-75
2023/05/02 10:32:17;;;;;;;4.75;1.10;;;14.60;83.60;;;;;;4994932;28;95367;-75
2023/05/02 10:34:46;;;;;;;4.95;1.40;;;14.60;83.60;;;;;;4996369;28;92616;-75
2023/05/02 10:37:14;;;;;;;3.45;1.48;;;14.50;84.00;;;;;;4995343;28;92455;-75
2023/05/02 10:39:42;;;;;;;3.92;1.35;;;14.30;85.10;;;;;;4994730;28;92979;-75
2023/05/02 10:42:09;;;;;;;2.85;1.48;;;14.10;85.60;;;;;;4996225;28;93110;-75
2023/05/02 10:44:39;;;;;;;3.00;1.42;;;13.90;88.50;;;;;;4994887;28;92507;-75
2023/05/02 10:47:25;;;;;;;3.53;1.63;;;13.80;89.50;;;;;;4995279;28;91776;-75
2023/05/02 10:49:55;;;;;;;4.88;1.40;;;13.70;89.60;;;;;;4996186;28;93153;-75
2023/05/02 10:52:37;;;;;;;3.58;1.67;;;13.60;89.60;;;;;;4994392;28;101546;-75
2023/05/02 10:55:17;;;;;;;4.95;1.38;;;13.60;90.10;;;;;;4976972;28;94859;-75
2023/05/02 10:57:59;;;;;;;4.47;1.73;;;13.70;90.20;;;;;;4995561;27;92383;-75
2023/05/02 11:00:32;;;;;;;5.70;2.03;;;13.80;90.30;;;;;;4994502;28;95978;-75
2023/05/02 11:03:00;;;;;;;2.65;1.30;;;13.90;90.00;;;;;;4994718;28;93138;-78
2023/05/02 11:05:27;;;;;;;3.45;1.25;;;14.20;89.70;;;;;;4994334;28;95441;-75
2023/05/02 11:08:19;;;;;;;3.90;1.10;;;14.50;88.60;;;;;;4995976;28;92433;-75
2023/05/02 11:10:48;;;;;;;3.00;1.48;;;14.50;87.60;;;;;;4995665;28;93138;-75
2023/05/02 11:13:35;;;;;;;3.22;1.10;;;14.20;90.10;;;;;;4994238;28;95578;-75
2023/05/02 11:16:02;;;;;;;2.65;1.25;;;13.90;89.20;;;;;;4995941;28;92641;-75
2023/05/02 11:18:59;;;;;;;2.80;1.30;;;13.60;89.00;;;;;;4994720;28;92526;-75
2023/05/02 11:21:28;;;;;;;4.15;1.65;;;13.40;90.10;;;;;;4993161;28;98403;-75
2023/05/02 11:24:40;;;;;;;5.55;1.52;;;13.20;90.80;;;;;;4992801;28;96272;-74
2023/05/02 11:27:38;;;;;;;7.35;1.95;;;13.10;91.40;;;;;;4994164;28;92556;-75
2023/05/02 11:30:09;;;;;;;1.50;1.35;;;13.20;92.10;;;;;;4994079;28;92428;-75
2023/05/02 11:32:47;;;;;;;4.25;1.70;;;13.20;91.90;;;;;;4994425;28;93386;-75
2023/05/02 11:35:21;;;;;;;4.95;1.73;;;13.40;92.00;;;;;;4995107;28;93357;-75
2023/05/02 11:37:57;;;;;;;;;;;13.50;91.50;;;;;;4995071;28;92527;-75
2023/05/02 11:40:25;;;;;;;4.85;1.60;;;13.60;91.20;;;;;;4995965;28;92399;-75
2023/05/02 11:42:53;;;;;;;2.53;1.55;;;13.90;90.70;;;;;;4993509;28;95880;-75
2023/05/02 11:45:21;;;;;;;6.15;1.58;;;14.40;90.60;;;;;;4994186;28;93089;-75
2023/05/02 11:47:49;;;;;;;3.55;1.58;;;14.70;90.00;;;;;;4976771;28;94918;-77
2023/05/02 11:50:17;;;;;;;4.10;1.40;;;14.80;89.10;;;;;;4994026;28;92496;-77
2023/05/02 11:52:44;;;;;;;5.03;1.05;;;14.80;88.10;;;;;;4993957;28;101636;-77
2023/05/02 11:55:13;;;;;;;3.78;1.40;;;14.70;87.90;;;;;;4993406;28;92835;-77
2023/05/02 11:57:40;;;;;;;2.63;1.10;;;14.70;87.60;;;;;;4994286;28;92397;-77
2023/05/02 12:00:10;;;;;;;3.85;1.55;;;14.70;87.90;;;;;;4995152;28;92465;-77
2023/05/02 12:02:37;;;;;;;2.20;1.33;;;14.70;87.50;;;;;;4995176;28;92978;-77
2023/05/02 12:05:06;;;;;;;1.65;1.10;;;14.60;86.50;;;;;;4995486;28;92956;-77
2023/05/02 12:07:53;;;;;;;3.00;1.25;;;14.40;87.20;;;;;;4995260;28;92469;-75
2023/05/02 12:10:20;;;;;;;4.45;1.63;;;14.40;88.60;;;;;;4976346;28;92618;-75
2023/05/02 12:12:47;;;;;;;2.40;1.15;;;14.20;88.70;;;;;;4993097;28;95924;-75
2023/05/02 12:15:14;;;;;;;2.55;1.25;;;14.10;89.20;;;;;;4993264;28;98036;-75
2023/05/02 12:17:47;;;;;;;3.67;1.40;;;13.90;89.80;;;;;;4995045;28;95674;-75
2023/05/02 12:20:15;;;;;;;3.90;1.33;;;14.00;90.80;;;;;;4993576;28;92427;-75
2023/05/02 12:22:42;;;;;;;2.92;1.45;;;13.90;90.00;;;;;;4993611;28;95701;-75
2023/05/02 12:25:09;;;;;;;7.38;1.60;;;13.90;89.50;;;;;;4993645;28;92876;-75
2023/05/02 12:27:36;;;;;;;5.07;1.48;;;14.00;90.50;;;;;;4977509;28;92470;-75
2023/05/02 12:30:04;;;;;;;3.92;1.40;;;14.30;90.90;;;;;;4993940;28;91819;-75
2023/05/02 12:32:33;;;;;;;2.35;1.40;;;14.50;89.00;;;;;;4994728;28;93348;-75
2023/05/02 12:35:02;;;;;;;4.13;1.45;;;14.70;88.30;;;;;;4994099;28;95575;-75
2023/05/02 12:37:29;;;;;;;3.83;1.27;;;14.80;88.30;;;;;;4997300;28;95057;-75
2023/05/02 12:39:56;;;;;;;4.22;2.00;;;14.90;87.20;;;;;;4997210;28;92500;-75
2023/05/02 12:42:25;;;;;;;4.22;1.77;;;14.90;87.20;;;;;;4979950;28;102201;-75
2023/05/02 12:44:52;;;;;;;5.35;1.33;;;14.90;86.50;;;;;;4996861;28;93360;-75
2023/05/02 12:47:21;;;;;;;4.85;1.42;;;14.80;87.20;;;;;;4991704;28;92861;-75
2023/05/02 12:49:52;;;;;;;2.72;1.30;;;14.80;87.40;;;;;;4984527;28;92422;-75
2023/05/02 12:52:20;;;;;;;3.65;1.60;;;14.60;87.00;;;;;;4992911;28;95770;-75
2023/05/02 12:54:47;;;;;;;5.07;1.60;;;14.60;87.30;;;;;;4978250;28;94222;-75
2023/05/02 12:57:24;;;;;;;3.28;1.30;;;14.80;86.90;;;;;;5009986;28;92413;-75
2023/05/02 12:59:55;;;;;;;2.65;1.50;;;14.90;86.90;;;;;;4978155;28;92453;-75
2023/05/02 13:02:22;;;;;;;2.40;1.13;;;14.90;86.70;;;;;;4992422;28;95705;-75
2023/05/02 13:04:49;;;;;;;1.73;0.90;;;14.80;86.40;;;;;;4976508;28;97999;-75